createdAt,value
2023-04-19T00:03:17.272Z,2.67
2023-04-19T00:06:42.452Z,2.60
2023-04-19T00:10:07.608Z,2.60
2023-04-19T00:13:32.878Z,2.50
2023-04-19T00:16:56.951Z,2.23
2023-04-19T00:20:21.769Z,2.70
2023-04-19T00:23:45.616Z,2.20
2023-04-19T00:27:09.382Z,1.90
2023-04-19T00:30:34.262Z,2.73
2023-04-19T00:33:58.046Z,2.00
2023-04-19T00:37:24.429Z,2.30
2023-04-19T00:40:47.916Z,2.80
2023-04-19T00:44:11.719Z,2.23
2023-04-19T00:47:37.209Z,2.73
2023-04-19T00:51:01.158Z,2.87
2023-04-19T00:54:25.909Z,2.73
2023-04-19T00:57:51.900Z,2.17
2023-04-19T01:01:15.610Z,2.87
2023-04-19T01:04:40.513Z,2.80
2023-04-19T01:08:04.462Z,2.53
2023-04-19T01:11:28.846Z,2.80
2023-04-19T01:14:52.683Z,2.80
2023-04-19T01:18:16.157Z,2.73
2023-04-19T01:21:43.657Z,2.90
2023-04-19T01:25:10.283Z,2.60
2023-04-19T01:28:33.890Z,2.90
2023-04-19T01:31:57.942Z,2.93
2023-04-19T01:35:23.868Z,2.17
2023-04-19T01:38:48.488Z,2.40
2023-04-19T01:42:13.687Z,2.90
2023-04-19T01:45:37.512Z,2.37
2023-04-19T01:49:01.228Z,2.60
2023-04-19T01:52:25.188Z,2.60
2023-04-19T01:55:49.028Z,2.73
2023-04-19T01:59:14.127Z,3.17
2023-04-19T02:02:38.778Z,2.53
2023-04-19T02:06:02.733Z,3.37
2023-04-19T02:09:26.536Z,3.17
2023-04-19T02:12:50.337Z,2.67
2023-04-19T02:16:15.164Z,2.80
2023-04-19T02:19:39.602Z,2.93
2023-04-19T02:23:03.457Z,2.77
2023-04-19T02:26:27.355Z,3.13
2023-04-19T02:29:51.413Z,2.90
2023-04-19T02:33:17.136Z,2.90
2023-04-19T02:36:40.596Z,2.60
2023-04-19T02:40:05.331Z,3.10
2023-04-19T02:43:28.807Z,2.63
2023-04-19T02:46:53.053Z,2.43
2023-04-19T02:50:18.798Z,2.87
2023-04-19T02:53:46.243Z,2.47
2023-04-19T02:57:10.078Z,2.87
2023-04-19T03:00:35.759Z,2.50
2023-04-19T03:04:05.078Z,2.83
2023-04-19T03:07:30.653Z,2.67
2023-04-19T03:10:55.518Z,2.90
2023-04-19T03:14:19.674Z,2.50
2023-04-19T03:17:44.580Z,2.77
2023-04-19T03:21:09.568Z,3.23
2023-04-19T03:24:46.046Z,3.10
2023-04-19T03:28:19.686Z,2.93
2023-04-19T03:32:18.724Z,3.00
2023-04-19T03:35:42.434Z,3.40
2023-04-19T03:39:08.645Z,2.70
2023-04-19T03:42:35.279Z,2.63
2023-04-19T03:46:14.564Z,3.10
2023-04-19T03:49:38.783Z,2.97
2023-04-19T03:53:05.693Z,3.50
2023-04-19T03:56:29.256Z,3.00
2023-04-19T03:59:54.617Z,3.50
2023-04-19T04:03:18.266Z,3.50
2023-04-19T04:06:42.239Z,3.00
2023-04-19T04:10:07.185Z,3.23
2023-04-19T04:13:37.363Z,3.30
2023-04-19T04:17:24.239Z,3.07
2023-04-19T04:20:48.880Z,3.30
2023-04-19T04:24:12.849Z,3.60
2023-04-19T04:27:52.710Z,3.43
2023-04-19T04:31:18.989Z,3.40
2023-04-19T04:34:45.626Z,3.23
2023-04-19T04:38:24.091Z,3.40
2023-04-19T04:41:51.844Z,3.00
2023-04-19T04:45:18.485Z,3.20
2023-04-19T04:48:42.616Z,3.33
2023-04-19T04:52:08.678Z,3.30
2023-04-19T04:55:39.689Z,2.80
2023-04-19T04:59:03.867Z,3.23
2023-04-19T05:02:31.938Z,3.83
2023-04-19T05:05:56.270Z,3.83
2023-04-19T05:09:22.692Z,3.87
2023-04-19T05:12:47.144Z,3.37
2023-04-19T05:16:11.341Z,3.40
2023-04-19T05:19:37.935Z,2.97
2023-04-19T05:23:04.282Z,3.70
2023-04-19T05:26:32.177Z,3.70
2023-04-19T05:29:56.889Z,3.30
2023-04-19T05:33:20.614Z,3.27
2023-04-19T05:36:45.942Z,3.37
2023-04-19T05:40:17.748Z,3.33
2023-04-19T05:43:42.905Z,3.30
2023-04-19T05:47:06.982Z,3.33
2023-04-19T05:50:52.458Z,3.30
2023-04-19T05:54:36.670Z,3.47
2023-04-19T05:58:01.853Z,3.70
2023-04-19T06:01:28.969Z,3.23
2023-04-19T06:04:52.851Z,3.83
2023-04-19T06:08:17.639Z,3.13
2023-04-19T06:11:49.927Z,3.70
2023-04-19T06:15:14.883Z,2.80
2023-04-19T06:18:39.863Z,3.57
2023-04-19T06:22:03.650Z,3.53
2023-04-19T06:25:27.460Z,3.73
2023-04-19T06:28:51.288Z,2.93
2023-04-19T06:32:15.085Z,3.37
2023-04-19T06:35:39.872Z,3.20
2023-04-19T06:39:04.176Z,3.40
2023-04-19T06:42:29.518Z,3.10
2023-04-19T06:45:59.686Z,2.50
2023-04-19T06:49:23.621Z,3.27
2023-04-19T06:52:48.767Z,3.20
2023-04-19T06:56:13.446Z,3.40
2023-04-19T06:59:39.814Z,3.40
2023-04-19T07:03:03.775Z,3.40
2023-04-19T07:06:27.721Z,3.30
2023-04-19T07:09:52.973Z,3.03
2023-04-19T07:13:16.971Z,3.10
2023-04-19T07:16:40.991Z,3.10
2023-04-19T07:20:06.422Z,4.70
2023-04-19T07:23:30.876Z,3.47
2023-04-19T07:26:56.151Z,3.60
2023-04-19T07:30:20.106Z,4.00
2023-04-19T07:33:44.074Z,3.80
2023-04-19T07:37:08.054Z,2.80
2023-04-19T07:40:32.137Z,3.53
2023-04-19T07:43:59.179Z,2.97
2023-04-19T07:47:22.720Z,3.70
2023-04-19T07:50:46.564Z,3.43
2023-04-19T07:54:10.450Z,3.00
2023-04-19T07:57:33.910Z,3.30
2023-04-19T08:00:58.938Z,3.77
2023-04-19T08:04:23.375Z,3.20
2023-04-19T08:07:47.961Z,3.17
2023-04-19T08:11:11.524Z,3.47
2023-04-19T08:14:43.375Z,4.37
2023-04-19T08:18:12.715Z,3.73
2023-04-19T08:21:41.185Z,3.60
2023-04-19T08:25:06.643Z,3.20
2023-04-19T08:28:30.526Z,3.10
2023-04-19T08:31:54.451Z,2.50
2023-04-19T08:35:19.734Z,2.57
2023-04-19T08:38:46.682Z,3.17
2023-04-19T08:45:42.604Z,2.93
2023-04-19T08:49:07.477Z,2.40
2023-04-19T08:52:47.972Z,2.90
2023-04-19T08:56:31.900Z,2.80
2023-04-19T08:59:59.406Z,2.20
2023-04-19T09:03:23.303Z,2.30
2023-04-19T09:06:47.073Z,2.60
2023-04-19T09:10:14.100Z,2.90
2023-04-19T09:13:38.789Z,2.80
2023-04-19T09:17:17.633Z,2.70
2023-04-19T09:20:43.908Z,2.73
2023-04-19T09:24:08.703Z,2.80
2023-04-19T09:27:37.339Z,2.60
2023-04-19T09:31:35.326Z,3.67
2023-04-19T09:34:59.976Z,2.97
2023-04-19T09:38:23.814Z,3.10
2023-04-19T09:41:53.804Z,2.80
2023-04-19T09:48:45.795Z,3.23
2023-04-19T09:52:11.326Z,3.00
2023-04-19T09:55:48.918Z,2.97
2023-04-19T09:59:21.154Z,3.60
2023-04-19T10:02:54.439Z,3.30
2023-04-19T10:13:21.357Z,3.73
2023-04-19T10:16:47.681Z,2.60
2023-04-19T10:20:23.972Z,3.13
2023-04-19T10:23:48.187Z,2.90
2023-04-19T10:27:13.872Z,2.47
2023-04-19T10:30:37.730Z,2.60
2023-04-19T10:34:01.635Z,2.43
2023-04-19T10:37:28.157Z,3.13
2023-04-19T10:41:01.241Z,2.90
2023-04-19T10:44:25.180Z,2.43
2023-04-19T10:47:49.037Z,2.43
2023-04-19T10:51:19.254Z,2.67
2023-04-19T10:54:44.477Z,2.70
2023-04-19T10:58:08.848Z,2.70
2023-04-19T11:01:38.153Z,2.30
2023-04-19T11:05:04.100Z,2.33
2023-04-19T11:08:28.435Z,2.33
2023-04-19T11:11:53.765Z,2.97
2023-04-19T11:15:17.647Z,3.00
2023-04-19T11:18:41.424Z,2.17
2023-04-19T11:22:05.398Z,2.73
2023-04-19T11:25:31.556Z,3.10
2023-04-19T11:28:57.161Z,2.70
2023-04-19T11:32:23.449Z,2.73
2023-04-19T11:35:46.910Z,1.93
2023-04-19T11:39:10.836Z,3.00
2023-04-19T11:42:35.786Z,2.30
2023-04-19T11:46:06.940Z,2.70
2023-04-19T11:49:31.788Z,2.50
2023-04-19T11:52:55.637Z,2.40
2023-04-19T11:56:19.401Z,2.50
2023-04-19T12:00:07.125Z,2.47
2023-04-19T12:03:47.852Z,2.57
2023-04-19T12:07:11.969Z,2.87
2023-04-19T12:10:37.074Z,2.87
2023-04-19T12:14:10.421Z,3.07
2023-04-19T12:17:35.325Z,3.10
2023-04-19T12:21:04.087Z,2.57
2023-04-19T12:24:27.896Z,3.27
2023-04-19T12:27:51.648Z,2.83
2023-04-19T12:31:16.441Z,3.20
2023-04-19T12:34:40.394Z,2.90
2023-04-19T12:38:05.577Z,3.27
2023-04-19T12:41:29.452Z,3.20
2023-04-19T12:44:53.298Z,3.50
2023-04-19T12:48:17.131Z,2.97
2023-04-19T12:51:42.536Z,3.67
2023-04-19T12:55:08.916Z,3.50
2023-04-19T12:58:32.704Z,3.70
2023-04-19T13:01:56.759Z,3.27
2023-04-19T13:05:20.777Z,3.20
2023-04-19T13:08:47.438Z,3.70
2023-04-19T13:12:12.903Z,4.47
2023-04-19T13:15:36.795Z,3.20
2023-04-19T13:19:00.689Z,3.90
2023-04-19T13:22:24.578Z,3.23
2023-04-19T13:25:48.460Z,2.70
2023-04-19T13:29:13.795Z,3.10
2023-04-19T13:32:37.674Z,2.77
2023-04-19T13:36:01.497Z,2.50
2023-04-19T13:39:25.353Z,2.60
2023-04-19T13:42:49.142Z,3.50
2023-04-19T13:46:14.531Z,2.70
2023-04-19T13:49:38.426Z,2.40
2023-04-19T13:53:02.329Z,2.70
2023-04-19T13:56:26.458Z,2.20
2023-04-19T13:59:50.218Z,2.83
2023-04-19T14:03:15.757Z,2.53
2023-04-19T14:06:39.720Z,2.30
2023-04-19T14:10:04.430Z,1.80
2023-04-19T14:13:28.713Z,2.27
2023-04-19T14:16:52.515Z,2.13
2023-04-19T14:20:18.131Z,2.60
2023-04-19T14:23:41.940Z,2.20
2023-04-19T14:27:10.195Z,2.43
2023-04-19T14:30:35.480Z,2.00
2023-04-19T14:33:59.729Z,2.40
2023-04-19T14:37:25.288Z,2.70
2023-04-19T14:40:49.317Z,2.30
2023-04-19T14:44:13.258Z,2.90
2023-04-19T14:47:37.591Z,3.10
2023-04-19T14:51:01.718Z,2.70
2023-04-19T14:54:26.935Z,2.60
2023-04-19T14:57:50.444Z,3.00
2023-04-19T15:01:14.730Z,2.70
2023-04-19T15:04:41.095Z,2.30
2023-04-19T15:08:05.610Z,2.37
2023-04-19T15:11:30.664Z,2.67
2023-04-19T15:14:54.853Z,2.70
2023-04-19T15:18:18.686Z,2.63
2023-04-19T15:21:42.486Z,2.53
2023-04-19T15:25:06.871Z,3.10
2023-04-19T15:28:36.228Z,2.57
2023-04-19T15:32:00.010Z,2.50
2023-04-19T15:35:23.960Z,2.60
2023-04-19T15:38:47.774Z,2.67
2023-04-19T15:42:11.604Z,2.90
2023-04-19T15:45:36.736Z,2.30
2023-04-19T15:49:00.538Z,2.80
2023-04-19T15:52:24.268Z,2.50
2023-04-19T15:55:48.216Z,2.60
2023-04-19T15:59:12.091Z,2.07
2023-04-19T16:02:37.525Z,2.57
2023-04-19T16:06:01.651Z,2.60
2023-04-19T16:09:26.398Z,2.80
2023-04-19T16:12:50.226Z,2.23
2023-04-19T16:16:14.143Z,2.30
2023-04-19T16:19:39.404Z,2.37
2023-04-19T16:23:03.759Z,2.60
2023-04-19T16:26:28.428Z,2.87
2023-04-19T16:29:52.253Z,2.50
2023-04-19T16:33:16.323Z,2.23
2023-04-19T16:36:44.648Z,2.40
2023-04-19T16:40:10.381Z,2.17
2023-04-19T16:43:34.328Z,2.40
2023-04-19T16:46:58.197Z,2.27
2023-04-19T16:50:22.127Z,2.38
2023-04-19T16:53:47.311Z,2.27
2023-04-19T16:57:11.178Z,2.83
2023-04-19T17:00:35.055Z,2.80
2023-04-19T17:03:58.652Z,2.63
2023-04-19T17:07:22.659Z,2.43
2023-04-19T17:10:47.681Z,2.93
2023-04-19T17:14:11.655Z,2.27
2023-04-19T17:17:35.845Z,2.90
2023-04-19T17:21:00.228Z,2.50
2023-04-19T17:24:24.334Z,2.30
2023-04-19T17:27:49.418Z,2.10
2023-04-19T17:31:13.361Z,2.23
2023-04-19T17:34:37.617Z,2.30
2023-04-19T17:38:01.755Z,2.00
2023-04-19T17:41:25.617Z,1.60
2023-04-19T17:44:51.427Z,2.50
2023-04-19T17:48:14.884Z,2.50
2023-04-19T17:51:38.789Z,2.07
2023-04-19T17:55:04.612Z,2.63
2023-04-19T17:58:28.465Z,2.07
2023-04-19T18:01:53.298Z,2.30
2023-04-19T18:05:17.696Z,2.03
2023-04-19T18:08:41.561Z,1.73
2023-04-19T18:12:05.733Z,1.50
2023-04-19T18:15:30.036Z,1.37
2023-04-19T18:18:54.954Z,1.10
2023-04-19T18:22:18.752Z,1.00
2023-04-19T18:25:42.488Z,0.90
2023-04-19T18:29:06.352Z,0.90
2023-04-19T18:32:30.172Z,0.93
2023-04-19T18:35:55.511Z,1.10
2023-04-19T18:39:19.407Z,1.30
2023-04-19T18:42:43.313Z,0.97
2023-04-19T18:46:07.352Z,1.00
2023-04-19T18:49:31.949Z,0.90
2023-04-19T18:52:57.081Z,1.10
2023-04-19T18:56:21.238Z,1.00
2023-04-19T18:59:45.775Z,1.00
2023-04-19T19:03:19.217Z,0.97
2023-04-19T19:06:53.135Z,0.93
2023-04-19T19:10:21.801Z,1.03
2023-04-19T19:13:46.629Z,0.80
2023-04-19T19:17:10.695Z,0.90
2023-04-19T19:20:34.749Z,1.10
2023-04-19T19:23:59.394Z,0.97
2023-04-19T19:27:25.038Z,0.90
2023-04-19T19:30:50.534Z,1.10
2023-04-19T19:34:25.987Z,0.97
2023-04-19T19:37:52.896Z,0.87
2023-04-19T19:44:45.083Z,1.00
2023-04-19T19:48:09.038Z,1.00
2023-04-19T19:55:08.360Z,0.90
2023-04-19T19:58:46.417Z,1.40
2023-04-19T20:02:15.203Z,1.50
2023-04-19T20:05:39.759Z,1.20
2023-04-19T20:09:04.592Z,1.30
2023-04-19T20:12:28.589Z,1.47
2023-04-19T20:15:53.376Z,1.10
2023-04-19T20:19:19.358Z,0.93
2023-04-19T20:22:43.229Z,1.20
2023-04-19T20:26:07.220Z,1.33
2023-04-19T20:29:31.150Z,1.50
2023-04-19T20:32:55.368Z,1.37
2023-04-19T20:36:22.577Z,1.40
2023-04-19T20:39:46.496Z,1.30
2023-04-19T20:43:10.488Z,1.40
2023-04-19T20:46:36.542Z,0.97
2023-04-19T20:50:00.431Z,1.57
2023-04-19T20:53:25.760Z,1.30
2023-04-19T20:56:49.616Z,1.20
2023-04-19T21:00:16.730Z,1.10
2023-04-19T21:03:40.864Z,1.10
2023-04-19T21:07:04.806Z,1.40
2023-04-19T21:10:30.406Z,1.40
2023-04-19T21:13:54.291Z,1.20
2023-04-19T21:17:18.138Z,1.50
2023-04-19T21:20:41.698Z,1.50
2023-04-19T21:24:05.609Z,1.23
2023-04-19T21:27:33.766Z,1.50
2023-04-19T21:30:58.439Z,1.40
2023-04-19T21:34:22.557Z,1.17
2023-04-19T21:37:46.452Z,1.30
2023-04-19T21:41:10.813Z,1.40
2023-04-19T21:44:36.668Z,1.40
2023-04-19T21:48:00.696Z,1.57
2023-04-19T21:51:24.640Z,1.70
2023-04-19T21:54:48.783Z,1.40
2023-04-19T21:58:12.689Z,1.20
2023-04-19T22:01:37.845Z,1.33
2023-04-19T22:05:01.645Z,1.67
2023-04-19T22:08:26.700Z,1.93
2023-04-19T22:11:51.228Z,1.57
2023-04-19T22:15:15.980Z,1.77
2023-04-19T22:18:41.281Z,1.90
2023-04-19T22:22:05.272Z,1.70
2023-04-19T22:25:29.094Z,1.70
2023-04-19T22:28:53.220Z,1.90
2023-04-19T22:32:17.149Z,1.60
2023-04-19T22:35:42.348Z,1.70
2023-04-19T22:39:05.902Z,1.70
2023-04-19T22:42:29.725Z,1.80
2023-04-19T22:45:53.516Z,1.80
2023-04-19T22:49:17.328Z,1.70
2023-04-19T22:52:42.620Z,1.50
2023-04-19T22:56:06.971Z,1.57
2023-04-19T22:59:30.810Z,1.50
2023-04-19T23:02:55.099Z,1.23
2023-04-19T23:06:19.363Z,1.63
2023-04-19T23:09:44.654Z,1.50
2023-04-19T23:13:10.109Z,1.43
2023-04-19T23:16:34.219Z,1.50
2023-04-19T23:19:57.984Z,1.63
2023-04-19T23:23:21.737Z,1.33
2023-04-19T23:26:46.879Z,1.60
2023-04-19T23:30:11.130Z,1.60
2023-04-19T23:33:34.611Z,1.60
2023-04-19T23:36:58.471Z,1.20
2023-04-19T23:40:22.487Z,1.30
2023-04-19T23:43:48.429Z,1.37
2023-04-19T23:47:12.314Z,1.30
2023-04-19T23:50:36.077Z,1.40
2023-04-19T23:53:59.861Z,1.20
2023-04-19T23:57:24.605Z,1.30
